M I D A S
Marine Information and Data Acquisition System
Tripno 1621 of the Zeeleeuw from 2008-12-17 07:56:55 to 2008-12-17 14:39:23
Back to CruiseResearch ActivitiesStationsMapUnderway DataData graphs

EquipmentUnitsComment
TimeDGPSUTC
LatitudeDGPSDM.mWGS84
LongitudeDGPSDM.mWGS84
HeadingGyrodeg 
SOGDGPSknotsSpeed over ground
COGDGPSdegCourse over ground
DepthEcho soundermeters200 kHz
Missing or incorrect values are displayed as -999
Navigation data collected by the RV Zeeleeuw from 2008-12-17 08:00:30 to 2008-12-17 14:43:06
Time Latitude Longitude Heading SOG COG Depth
2008-12-17 08:01:38 51°13.68 2°55.876 104.8 3.5 288 -999
2008-12-17 08:02:36 51°13.692 2°55.802 90.1 2.6 282 9.7
2008-12-17 08:03:35 51°13.697 2°55.749 68.1 1.6 270 12.5
2008-12-17 08:04:35 51°13.698 2°55.723 43.6 0.5 293 12.9
2008-12-17 08:05:35 51°13.701 2°55.711 19 0.6 259 15.6
2008-12-17 08:06:35 51°13.695 2°55.698 5 0.4 237 16.1
2008-12-17 08:07:35 51°13.692 2°55.691 3.9 0.3 237 15.2
2008-12-17 08:08:35 51°13.694 2°55.689 1.3 0.2 342 15.9
2008-12-17 08:09:35 51°13.697 2°55.687 359.1 0.2 332 16.5
2008-12-17 08:10:35 51°13.699 2°55.684 357.6 0.2 319 15.8
2008-12-17 08:11:35 51°13.701 2°55.679 353.6 0.4 338 13.8
2008-12-17 08:12:35 51°13.715 2°55.674 353 2.6 349 12.1
2008-12-17 08:13:35 51°13.812 2°55.646 348.8 8 346 10.2
2008-12-17 08:14:35 51°13.937 2°55.582 338.2 6.8 338 10.1
2008-12-17 08:15:35 51°14.034 2°55.509 332.7 6.7 331 10
2008-12-17 08:16:35 51°14.147 2°55.407 327.8 8.9 327 10.1
2008-12-17 08:17:35 51°14.278 2°55.247 319.3 10.6 318 10.2
2008-12-17 08:18:35 51°14.407 2°55.021 311.9 12.2 311 10.5
2008-12-17 08:19:35 51°14.544 2°54.778 320 12.4 317 9.4
2008-12-17 08:20:35 51°14.701 2°54.567 327.1 12.4 321 9.2
2008-12-17 08:21:35 51°14.862 2°54.365 329 12.3 322 8.9
2008-12-17 08:22:35 51°15.021 2°54.167 327.2 12.1 321 8
2008-12-17 08:23:35 51°15.178 2°53.962 325.2 12.2 321 8.6
2008-12-17 08:24:35 51°15.337 2°53.759 326.3 12.3 322 9.2
2008-12-17 08:25:35 51°15.504 2°53.569 329.7 12.4 325 9.9
2008-12-17 08:26:35 51°15.671 2°53.374 329 12.5 323 10.3
2008-12-17 08:27:35 51°15.834 2°53.171 328 12.4 321 10.8
2008-12-17 08:28:35 51°15.995 2°52.965 327.2 12.4 321 11.2
2008-12-17 08:29:35 51°16.156 2°52.76 327.4 12.4 321 11.3
2008-12-17 08:30:35 51°16.319 2°52.554 326.9 12.5 322 11.5
2008-12-17 08:31:35 51°16.483 2°52.349 327.6 12.6 323 10.9
2008-12-17 08:32:35 51°16.649 2°52.149 328.6 12.4 325 9.6
2008-12-17 08:33:35 51°16.827 2°51.988 338.5 12.3 334 9.8
2008-12-17 08:34:35 51°17.012 2°51.854 340.7 12.2 336 10.1
2008-12-17 08:35:35 51°17.198 2°51.723 342.7 12.1 339 10.3
2008-12-17 08:36:35 51°17.389 2°51.626 352.3 11.9 350 9.3
2008-12-17 08:37:35 51°17.585 2°51.597 1.4 11.7 356 9
2008-12-17 08:38:35 51°17.782 2°51.581 2.4 11.8 357 9.2
2008-12-17 08:39:35 51°17.98 2°51.569 4.5 11.9 -999 9.9
2008-12-17 08:40:35 51°18.178 2°51.559 4 11.8 357 10.8
2008-12-17 08:41:35 51°18.374 2°51.546 4.2 11.8 358 11.6
2008-12-17 08:42:35 51°18.571 2°51.525 3 11.9 355 12.5
2008-12-17 08:43:35 51°18.768 2°51.499 3.2 11.9 357 13.4
2008-12-17 08:44:35 51°18.966 2°51.489 6.1 11.9 359 13.7
2008-12-17 08:45:35 51°19.164 2°51.477 4.9 12 357 14.5
2008-12-17 08:46:35 51°19.363 2°51.465 5.7 12.1 357 14.5
2008-12-17 08:47:35 51°19.564 2°51.453 5.5 12.1 357 14.3
2008-12-17 08:48:35 51°19.763 2°51.441 4.7 11.9 357 14
2008-12-17 08:49:35 51°19.962 2°51.415 3.1 11.9 355 12.8
2008-12-17 08:50:35 51°20.16 2°51.389 4.5 12 355 12
2008-12-17 08:51:35 51°20.358 2°51.377 6.9 12 358 12.8
2008-12-17 08:52:35 51°20.556 2°51.365 6.2 11.9 358 14.5
2008-12-17 08:53:35 51°20.753 2°51.345 4 11.8 357 16.3
2008-12-17 08:54:35 51°20.949 2°51.327 3.9 11.8 357 18
2008-12-17 08:55:35 51°21.145 2°51.317 5.3 11.8 358 20.3
2008-12-17 08:56:35 51°21.341 2°51.313 4 11.8 358 22.2
2008-12-17 08:57:35 51°21.536 2°51.3 5 11.7 -999 23.1
2008-12-17 08:58:35 51°21.732 2°51.302 7 11.9 -999 23.2
2008-12-17 08:59:35 51°21.931 2°51.3 6.6 11.9 359 23.2
2008-12-17 09:00:35 51°22.129 2°51.288 3.5 11.9 357 22.2
2008-12-17 09:01:35 51°22.328 2°51.273 3.9 12 358 22.4
2008-12-17 09:02:35 51°22.526 2°51.257 3.5 12 357 21.8
2008-12-17 09:03:35 51°22.725 2°51.243 3.3 11.9 357 21.8
2008-12-17 09:04:35 51°22.924 2°51.228 3.7 12.1 357 20.9
2008-12-17 09:05:35 51°23.124 2°51.213 3 11.9 357 14.8
2008-12-17 09:06:35 51°23.32 2°51.198 3.5 11.8 357 14.1
2008-12-17 09:07:35 51°23.515 2°51.182 2.7 11.8 356 15.6
2008-12-17 09:08:35 51°23.712 2°51.16 3.3 11.8 356 16.5
2008-12-17 09:09:35 51°23.908 2°51.138 2.9 11.8 355 17.1
2008-12-17 09:10:35 51°24.104 2°51.127 3.7 11.8 357 20.1
2008-12-17 09:11:35 51°24.299 2°51.114 3.6 11.6 357 21.2
2008-12-17 09:12:35 51°24.49 2°51.1 3.6 11.6 357 20.8
2008-12-17 09:13:35 51°24.683 2°51.085 3.9 11.6 356 22.1
2008-12-17 09:14:35 51°24.877 2°51.061 1.5 11.7 354 21.9
2008-12-17 09:15:35 51°25.071 2°51.029 0.2 11.7 353 21.8
2008-12-17 09:16:35 51°25.264 2°50.994 1 11.6 354 21.9
2008-12-17 09:17:35 51°25.457 2°50.965 1.6 11.6 356 22.3
2008-12-17 09:18:35 51°25.649 2°50.933 -999 11.7 353 22.6
2008-12-17 09:19:35 51°25.843 2°50.894 0.3 11.7 354 22.3
2008-12-17 09:20:35 51°26.037 2°50.867 1.5 11.7 356 22.8
2008-12-17 09:21:35 51°26.233 2°50.843 0.8 11.9 354 22.8
2008-12-17 09:22:35 51°26.43 2°50.818 2.5 11.9 356 22.4
2008-12-17 09:23:35 51°26.627 2°50.797 0.9 11.9 355 22.2
2008-12-17 09:24:35 51°26.825 2°50.777 1.4 11.9 355 22.2
2008-12-17 09:25:35 51°27.018 2°50.753 1.3 11.6 357 16.7
2008-12-17 09:26:35 51°27.211 2°50.735 1.5 11.6 356 18.2
2008-12-17 09:27:35 51°27.403 2°50.714 1.7 11.6 356 20.6
2008-12-17 09:28:35 51°27.596 2°50.693 2.2 11.7 357 22.6
2008-12-17 09:29:35 51°27.789 2°50.666 359.3 11.6 355 23.8
2008-12-17 09:30:35 51°27.982 2°50.636 0.7 11.6 355 26.6
2008-12-17 09:31:35 51°28.175 2°50.609 2.1 11.6 355 27.2
2008-12-17 09:32:35 51°28.365 2°50.588 2.5 11.3 356 26.3
2008-12-17 09:33:35 51°28.552 2°50.559 1.5 11.3 356 26.7
2008-12-17 09:34:35 51°28.741 2°50.529 0.3 11.4 354 26.5
2008-12-17 09:35:35 51°28.931 2°50.505 2.4 11.5 354 25.9
2008-12-17 09:36:35 51°29.115 2°50.542 25.4 11.1 25 27
2008-12-17 09:37:35 51°29.25 2°50.737 51.2 11 50 27.2
2008-12-17 09:38:35 51°29.368 2°50.964 52.2 11.1 49 26.7
2008-12-17 09:39:35 51°29.491 2°51.185 49.6 11.1 45 27.8
2008-12-17 09:40:35 51°29.619 2°51.401 48.9 11.2 48 28.7
2008-12-17 09:41:35 51°29.714 2°51.654 64.5 11.2 66 29.8
2008-12-17 09:42:35 51°29.794 2°51.923 63.9 11.1 62 29
2008-12-17 09:43:35 51°29.883 2°52.188 62.7 11.2 61 29.2
2008-12-17 09:44:35 51°29.97 2°52.451 62 11.2 62 27.8
2008-12-17 09:45:35 51°30.06 2°52.711 61.4 11.1 61 29.2
2008-12-17 09:46:35 51°30.152 2°52.969 62 11.1 65 29.2
2008-12-17 09:47:35 51°30.233 2°53.235 64.7 11.1 65 30
2008-12-17 09:48:35 51°30.312 2°53.504 64.5 11.3 65 30.9
2008-12-17 09:49:35 51°30.39 2°53.775 64.9 11.2 67 32.2
2008-12-17 09:50:35 51°30.469 2°54.042 65.2 11.1 66 31.9
2008-12-17 09:51:35 51°30.548 2°54.308 65.4 11 64 32.2
2008-12-17 09:52:35 51°30.623 2°54.578 69.8 10.9 70 30.7
2008-12-17 09:53:35 51°30.681 2°54.858 71.7 11.2 72 32.6
2008-12-17 09:54:35 51°30.741 2°55.14 71 11.1 71 32.5
2008-12-17 09:55:35 51°30.801 2°55.42 69.4 10.9 73 33.8
2008-12-17 09:56:35 51°30.859 2°55.701 70.3 11.1 71 36.1
2008-12-17 09:57:35 51°30.919 2°55.981 70.2 11 72 35.2
2008-12-17 09:58:35 51°30.976 2°56.261 71.3 11 70 31.8
2008-12-17 09:59:35 51°31.036 2°56.539 68.7 11 70 31.9
2008-12-17 10:00:35 51°31.111 2°56.807 59.8 11 61 31.2
2008-12-17 10:01:35 51°31.219 2°57.039 48.7 10.8 49 29.8
2008-12-17 10:02:35 51°31.353 2°57.235 43.8 11 41 32.3
2008-12-17 10:03:35 51°31.488 2°57.43 44.4 10.9 41 33.9
2008-12-17 10:04:35 51°31.624 2°57.626 43.5 10.8 41 33.9
2008-12-17 10:05:35 51°31.758 2°57.824 43.8 11 41 34.9
2008-12-17 10:06:35 51°31.893 2°58.02 44 11 42 34.3
2008-12-17 10:07:35 51°32.028 2°58.217 42.4 10.9 44 34.2
2008-12-17 10:08:35 51°32.166 2°58.404 40.8 10.9 42 32.6
2008-12-17 10:09:35 51°32.301 2°58.598 42.4 10.5 43 30.2
2008-12-17 10:10:35 51°32.434 2°58.787 41.6 10.9 40 29.4
2008-12-17 10:11:35 51°32.563 2°58.994 46.8 10.9 48 29.7
2008-12-17 10:12:35 51°32.722 2°59.102 6.2 10.7 356 24.7
2008-12-17 10:13:35 51°32.884 2°58.97 324.1 11.5 310 12.3
2008-12-17 10:14:35 51°32.981 2°58.7 301.9 11.9 295 15.6
2008-12-17 10:15:35 51°33.068 2°58.416 302 11.8 297 15.2
2008-12-17 10:16:35 51°33.162 2°58.141 305.8 11.9 301 19.5
2008-12-17 10:17:35 51°33.27 2°57.877 309.7 11.9 303 18.2
2008-12-17 10:18:35 51°33.373 2°57.604 304.4 12 297 21.6
2008-12-17 10:19:35 51°33.453 2°57.308 298.8 12.2 291 24.3
2008-12-17 10:20:35 51°33.527 2°57.003 299.5 12.4 292 23.3
2008-12-17 10:21:35 51°33.6 2°56.694 297.6 12.4 290 28
2008-12-17 10:22:35 51°33.67 2°56.383 299 12.4 291 27.2
2008-12-17 10:23:35 51°33.741 2°56.071 293.7 12.5 287 28.3
2008-12-17 10:24:35 51°33.781 2°55.738 288.3 12.7 280 27.5
2008-12-17 10:25:35 51°33.778 2°55.394 267.4 13.3 260 28.3
2008-12-17 10:26:35 51°33.721 2°55.048 259.6 13.4 253 25.4
2008-12-17 10:27:35 51°33.665 2°54.702 261.2 13.4 257 27.5
2008-12-17 10:28:35 51°33.608 2°54.357 256.6 13.4 251 27.8
2008-12-17 10:29:35 51°33.509 2°54.034 242.4 13.6 240 27.7
2008-12-17 10:30:35 51°33.389 2°53.723 241.9 13.7 238 28
2008-12-17 10:31:35 51°33.273 2°53.408 244.4 13.7 240 28.8
2008-12-17 10:32:35 51°33.151 2°53.097 241.1 13.8 239 27.7
2008-12-17 10:33:35 51°33.027 2°52.785 241 13.8 238 27.7
2008-12-17 10:34:35 51°32.905 2°52.473 241.3 13.9 237 28.4
2008-12-17 10:35:35 51°32.778 2°52.165 239.3 13.8 237 29.1
2008-12-17 10:36:35 51°32.655 2°51.856 241.6 13.7 238 27.2
2008-12-17 10:37:35 51°32.531 2°51.548 240.9 13.8 237 29.6
2008-12-17 10:38:35 51°32.405 2°51.24 241.9 13.7 237 28.2
2008-12-17 10:39:35 51°32.283 2°50.931 242.1 13.6 238 31.8
2008-12-17 10:40:35 51°32.16 2°50.62 242 13.8 237 31.1
2008-12-17 10:41:35 51°32.033 2°50.31 241.2 13.9 238 28.4
2008-12-17 10:42:35 51°31.906 2°49.999 241.2 14.1 236 28.7
2008-12-17 10:43:35 51°31.783 2°49.68 242.7 13.9 239 28.8
2008-12-17 10:44:35 51°31.659 2°49.363 242 14 238 27.7
2008-12-17 10:45:35 51°31.532 2°49.046 239.8 14.1 235 30
2008-12-17 10:46:35 51°31.407 2°48.728 242.8 14.1 239 29.1
2008-12-17 10:47:35 51°31.281 2°48.411 242.1 14.1 237 29
2008-12-17 10:48:35 51°31.153 2°48.096 240.1 14.1 236 28.6
2008-12-17 10:49:35 51°31.025 2°47.783 241.2 14.1 237 29.6
2008-12-17 10:50:35 51°30.901 2°47.468 241.9 13.9 239 29.5
2008-12-17 10:51:35 51°30.778 2°47.154 241.2 13.9 240 25.8
2008-12-17 10:52:35 51°30.79 2°46.851 321.1 10.6 320 25.7
2008-12-17 10:53:35 51°30.958 2°46.801 3.9 10.7 356 26.9
2008-12-17 10:54:35 51°31.135 2°46.805 8.3 10.6 1 26.3
2008-12-17 10:55:35 51°31.311 2°46.816 9 10.7 5 26.9
2008-12-17 10:56:35 51°31.489 2°46.822 7.7 10.7 2 28.4
2008-12-17 10:57:35 51°31.666 2°46.831 9 10.6 3 28.6
2008-12-17 10:58:35 51°31.842 2°46.839 9.2 10.6 3 29.6
2008-12-17 10:59:35 51°32.02 2°46.847 8.3 10.5 5 29.8
2008-12-17 11:00:35 51°32.196 2°46.851 8.2 10.6 2 27.4
2008-12-17 11:01:35 51°32.373 2°46.853 8.7 10.6 1 30.3
2008-12-17 11:02:35 51°32.547 2°46.859 8.9 10.6 1 30.4
2008-12-17 11:03:35 51°32.723 2°46.863 8.9 10.6 -999 31.9
2008-12-17 11:04:35 51°32.898 2°46.87 8.4 10.6 2 32.4
2008-12-17 11:05:35 51°33.074 2°46.875 8.3 10.6 2 32.5
2008-12-17 11:06:35 51°33.25 2°46.879 7.2 10.5 3 30.7
2008-12-17 11:07:35 51°33.426 2°46.883 8.3 10.6 1 30.9
2008-12-17 11:08:35 51°33.602 2°46.889 7.6 10.5 2 32.1
2008-12-17 11:09:35 51°33.777 2°46.899 9.7 10.6 359 30.6
2008-12-17 11:10:35 51°33.952 2°46.91 8.7 10.6 3 28.3
2008-12-17 11:11:35 51°34.126 2°46.926 9.1 10.4 4 32
2008-12-17 11:12:35 51°34.302 2°46.939 6.8 10.5 3 32
2008-12-17 11:13:35 51°34.477 2°46.955 8.9 10.5 4 31.1
2008-12-17 11:14:35 51°34.653 2°46.971 8.2 10.5 5 31.4
2008-12-17 11:15:35 51°34.828 2°46.987 8.2 10.5 1 32.7
2008-12-17 11:16:35 51°35.002 2°47.005 9 10.5 4 34.2
2008-12-17 11:17:35 51°35.177 2°47.021 8.9 10.4 3 34.5
2008-12-17 11:18:35 51°35.344 2°47.067 22.7 10.1 21 35
2008-12-17 11:19:35 51°35.493 2°47.193 30 10 29 35.5
2008-12-17 11:20:35 51°35.641 2°47.322 30 10.3 29 35.7
2008-12-17 11:21:35 51°35.792 2°47.454 30.9 10.4 31 36.3
2008-12-17 11:22:35 51°35.942 2°47.589 30 10.3 30 36.3
2008-12-17 11:23:35 51°36.095 2°47.713 27.8 10.3 28 37.8
2008-12-17 11:24:35 51°36.25 2°47.834 27.5 10.3 25 36.5
2008-12-17 11:25:35 51°36.405 2°47.953 28.6 10.2 25 38.6
2008-12-17 11:26:35 51°36.56 2°48.076 27.6 10.4 26 38.4
2008-12-17 11:27:35 51°36.714 2°48.197 27.4 10.3 31 38.2
2008-12-17 11:28:35 51°36.87 2°48.32 29.1 10.4 26 36.9
2008-12-17 11:29:35 51°37.023 2°48.443 28.7 10.3 25 38.6
2008-12-17 11:30:35 51°37.181 2°48.564 27.3 10.4 29 38.3
2008-12-17 11:31:35 51°37.336 2°48.687 28.6 10.4 24 36.9
2008-12-17 11:32:35 51°37.492 2°48.809 29 10.5 28 38.1
2008-12-17 11:33:35 51°37.649 2°48.933 27.9 10.6 26 36.7
2008-12-17 11:34:35 51°37.804 2°49.058 28.7 10.4 28 38.5
2008-12-17 11:35:35 51°37.961 2°49.177 27.7 10.4 28 38.9
2008-12-17 11:36:35 51°38.117 2°49.298 28.6 10.4 26 36.7
2008-12-17 11:37:35 51°38.271 2°49.422 28.1 10.5 24 38
2008-12-17 11:38:35 51°38.428 2°49.542 28 10.5 30 39.7
2008-12-17 11:39:35 51°38.585 2°49.666 28.3 10.6 26 38
2008-12-17 11:40:35 51°38.743 2°49.793 28.7 10.5 28 38.2
2008-12-17 11:41:35 51°38.901 2°49.916 27.8 10.5 25 36.1
2008-12-17 11:42:35 51°39.059 2°50.041 28.6 10.6 25 36.3
2008-12-17 11:43:35 51°39.215 2°50.163 27.6 10.5 23 36.7
2008-12-17 11:44:35 51°39.373 2°50.284 28.4 10.6 23 33.3
2008-12-17 11:45:35 51°39.532 2°50.405 29.1 10.6 27 35.8
2008-12-17 11:46:35 51°39.691 2°50.53 28.9 10.7 25 34
2008-12-17 11:47:35 51°39.822 2°50.708 57.7 10.8 66 32.8
2008-12-17 11:48:35 51°39.805 2°50.999 107.9 11.9 121 34.4
2008-12-17 11:49:35 51°39.678 2°51.263 119.3 12.6 128 32.9
2008-12-17 11:50:35 51°39.55 2°51.525 121 12.5 130 36.3
2008-12-17 11:51:35 51°39.427 2°51.794 118 12.4 124 34.1
2008-12-17 11:52:35 51°39.305 2°52.064 117.5 12.5 129 34.4
2008-12-17 11:53:35 51°39.154 2°52.302 132 13 138 33.4
2008-12-17 11:54:35 51°38.99 2°52.526 133.1 12.9 139 31.1
2008-12-17 11:55:35 51°38.833 2°52.754 129.7 12.7 138 34.2
2008-12-17 11:56:35 51°38.678 2°52.983 130.9 12.6 135 34
2008-12-17 11:57:35 51°38.521 2°53.217 129.4 12.7 137 32.2
2008-12-17 11:58:35 51°38.362 2°53.445 131.2 12.8 138 33.4
2008-12-17 11:59:35 51°38.209 2°53.676 129.5 12.6 138 32.1
2008-12-17 12:00:35 51°38.057 2°53.906 130.9 12.7 140 29.8
2008-12-17 12:01:35 51°37.9 2°54.138 131.6 13.1 139 27.8
2008-12-17 12:02:35 51°37.742 2°54.368 130.9 12.5 139 24.5
2008-12-17 12:03:35 51°37.588 2°54.6 132 12.5 138 25.7
2008-12-17 12:04:35 51°37.433 2°54.833 131.9 13 141 21.3
2008-12-17 12:05:35 51°37.234 2°54.818 213.7 13.1 219 20.7
2008-12-17 12:06:35 51°37.11 2°54.526 242.1 13.7 237 21.6
2008-12-17 12:07:35 51°36.982 2°54.231 240.4 13.7 235 22.6
2008-12-17 12:08:35 51°36.855 2°53.928 241.4 13.6 238 21.7
2008-12-17 12:09:35 51°36.73 2°53.623 242.2 13.7 236 22.8
2008-12-17 12:10:35 51°36.603 2°53.32 242.1 13.7 237 21.4
2008-12-17 12:11:35 51°36.48 2°53.015 242.6 13.6 239 22.2
2008-12-17 12:12:35 51°36.357 2°52.71 242.9 13.6 236 21
2008-12-17 12:13:35 51°36.234 2°52.405 243.7 13.5 238 21.9
2008-12-17 12:14:35 51°36.112 2°52.101 241.5 13.6 239 24.3
2008-12-17 12:15:35 51°35.993 2°51.795 242.8 13.5 236 25.1
2008-12-17 12:16:35 51°35.871 2°51.491 242 13.5 238 25
2008-12-17 12:17:35 51°35.75 2°51.189 241.2 13.4 238 26.5
2008-12-17 12:18:35 51°35.629 2°50.887 241.8 13.5 237 25.4
2008-12-17 12:19:35 51°35.509 2°50.584 242.3 13.4 238 27.6
2008-12-17 12:20:35 51°35.339 2°50.436 167.6 12.1 166 21.9
2008-12-17 12:21:35 51°35.177 2°50.629 133.1 12.7 139 26.5
2008-12-17 12:22:35 51°35.019 2°50.854 133.9 12.9 139 30.9
2008-12-17 12:23:35 51°34.861 2°51.078 131.4 12.8 139 30.5
2008-12-17 12:24:35 51°34.712 2°51.313 125.1 12.4 130 36.3
2008-12-17 12:25:35 51°34.587 2°51.571 122 12.2 127 37.1
2008-12-17 12:26:35 51°34.457 2°51.82 120 11.9 127 40.5
2008-12-17 12:27:35 51°34.327 2°52.064 122.2 12.2 133 37.3
2008-12-17 12:28:35 51°34.201 2°52.309 121.6 11.9 130 36.9
2008-12-17 12:29:35 51°34.071 2°52.552 122.7 11.7 127 33.8
2008-12-17 12:30:35 51°33.942 2°52.801 121.8 12.3 129 34.3
2008-12-17 12:31:35 51°33.876 2°53.071 80.7 10.4 81 29.9
2008-12-17 12:32:35 51°33.962 2°53.309 54 10.7 55 30.6
2008-12-17 12:33:35 51°34.056 2°53.548 57.8 10.7 65 30.3
2008-12-17 12:34:35 51°34.139 2°53.799 59.1 10.6 59 32.4
2008-12-17 12:35:35 51°34.228 2°54.046 56.4 10.7 60 32.2
2008-12-17 12:36:35 51°34.316 2°54.291 57.7 10.5 60 31.2
2008-12-17 12:37:35 51°34.407 2°54.533 55.7 10.4 58 31.3
2008-12-17 12:38:35 51°34.508 2°54.765 52.7 10.6 54 31.9
2008-12-17 12:39:35 51°34.611 2°54.995 53 10.6 54 29.3
2008-12-17 12:40:35 51°34.713 2°55.227 52.3 10.6 55 32.8
2008-12-17 12:41:35 51°34.815 2°55.463 54.2 10.6 55 34.4
2008-12-17 12:42:35 51°34.915 2°55.699 53.6 10.6 56 33.8
2008-12-17 12:43:35 51°35.015 2°55.938 53.2 10.8 57 34.8
2008-12-17 12:44:35 51°35.113 2°56.182 53.6 10.8 58 34.9
2008-12-17 12:45:35 51°35.213 2°56.429 52.5 11.1 59 33.4
2008-12-17 12:46:35 51°35.314 2°56.674 54.3 10.9 56 34.8
2008-12-17 12:47:35 51°35.413 2°56.921 51.8 11 57 33.1
2008-12-17 12:48:35 51°35.511 2°57.17 53.2 11 59 32.7
2008-12-17 12:49:35 51°35.534 2°57.454 94.1 11.7 108 36.4
2008-12-17 12:50:35 51°35.415 2°57.716 128.4 12.7 141 32
2008-12-17 12:51:35 51°35.237 2°57.901 145 13 153 32.5
2008-12-17 12:52:35 51°35.037 2°58.04 148.6 13.1 155 27.5
2008-12-17 12:53:35 51°34.836 2°58.173 148.5 13 156 29.2
2008-12-17 12:54:35 51°34.637 2°58.307 148.2 13.1 157 29.6
2008-12-17 12:55:35 51°34.433 2°58.441 149.1 13.1 156 28.8
2008-12-17 12:56:35 51°34.231 2°58.578 150.2 13.3 159 25.4
2008-12-17 12:57:35 51°34.027 2°58.715 149.1 13.4 156 23.9
2008-12-17 12:58:35 51°33.824 2°58.862 148.4 13.4 158 18.6
2008-12-17 12:59:35 51°33.62 2°59.009 148.5 13.4 156 19
2008-12-17 13:00:35 51°33.419 2°59.158 149.6 13.4 156 15.3
2008-12-17 13:01:35 51°33.214 2°59.304 148.4 13.3 155 12.8
2008-12-17 13:02:35 51°33.011 2°59.458 148.8 13.6 157 23.4
2008-12-17 13:03:35 51°32.815 2°59.614 149.2 12.9 154 33.3
2008-12-17 13:04:35 51°32.62 2°59.765 149.5 13 152 33.2
2008-12-17 13:05:35 51°32.425 2°59.913 149.5 13 154 32.8
2008-12-17 13:06:35 51°32.229 3°0.064 150.3 13.2 158 29.9
2008-12-17 13:07:35 51°32.012 3°0.098 185.6 13.1 190 27.2
2008-12-17 13:08:35 51°31.803 2°59.973 203.6 13.6 205 26.7
2008-12-17 13:09:35 51°31.599 2°59.824 201.8 13.4 199 28
2008-12-17 13:10:35 51°31.39 2°59.689 201.2 13.4 203 28
2008-12-17 13:11:35 51°31.182 2°59.558 200.8 13.4 202 28.4
2008-12-17 13:12:35 51°30.973 2°59.424 202 13.5 203 28.6
2008-12-17 13:13:35 51°30.766 2°59.289 200.2 13.4 202 28.5
2008-12-17 13:14:35 51°30.563 2°59.161 200.6 13.2 203 27.4
2008-12-17 13:15:35 51°30.361 2°59.028 200.3 13.1 203 26.1
2008-12-17 13:16:35 51°30.158 2°58.893 201.3 13.3 202 26.6
2008-12-17 13:17:35 51°29.952 2°58.766 197.7 13.3 204 26.7
2008-12-17 13:18:35 51°29.744 2°58.645 197.7 13.2 198 25
2008-12-17 13:19:35 51°29.535 2°58.528 197 13.3 197 27.1
2008-12-17 13:20:35 51°29.329 2°58.41 200.5 13 199 27.2
2008-12-17 13:21:35 51°29.127 2°58.288 199.5 13 200 28.3
2008-12-17 13:22:35 51°28.918 2°58.177 197.6 13.3 197 29.1
2008-12-17 13:23:35 51°28.71 2°58.064 198.2 13.2 203 30.6
2008-12-17 13:24:35 51°28.503 2°57.951 197.6 13.2 197 31.1
2008-12-17 13:25:35 51°28.296 2°57.833 199.3 13.3 201 30.7
2008-12-17 13:26:35 51°28.089 2°57.702 198.7 13.3 202 31.1
2008-12-17 13:27:35 51°27.882 2°57.575 197.9 13.2 204 30.2
2008-12-17 13:28:35 51°27.677 2°57.455 197.4 13.3 197 29.1
2008-12-17 13:29:35 51°27.471 2°57.332 197.8 13.3 200 28
2008-12-17 13:30:35 51°27.263 2°57.205 198.7 13.4 200 26.1
2008-12-17 13:31:35 51°27.053 2°57.083 197.2 13.4 200 24
2008-12-17 13:32:35 51°26.842 2°56.963 198.4 13.4 201 21.3
2008-12-17 13:33:35 51°26.631 2°56.846 196.8 13.5 200 21.4
2008-12-17 13:34:35 51°26.42 2°56.729 198.4 13.4 197 18.3
2008-12-17 13:35:35 51°26.208 2°56.624 196.8 13.3 196 16.1
2008-12-17 13:36:35 51°25.995 2°56.531 194.8 13.2 193 17.1
2008-12-17 13:37:35 51°25.782 2°56.445 194.4 13.1 194 17.2
2008-12-17 13:38:35 51°25.569 2°56.362 194.8 13.1 193 18.7
2008-12-17 13:39:35 51°25.358 2°56.274 196.8 13.1 193 21.5
2008-12-17 13:40:35 51°25.15 2°56.183 196.7 12.8 195 24.7
2008-12-17 13:41:35 51°24.942 2°56.097 195.5 12.9 192 26
2008-12-17 13:42:35 51°24.738 2°56 196.3 12.6 196 24.8
2008-12-17 13:43:35 51°24.534 2°55.908 196.7 12.7 195 24.5
2008-12-17 13:44:35 51°24.33 2°55.811 197.3 13 200 25.3
2008-12-17 13:45:35 51°24.126 2°55.712 198.2 12.8 199 23.1
2008-12-17 13:46:35 51°23.922 2°55.617 196.4 12.8 197 21.7
2008-12-17 13:47:35 51°23.716 2°55.522 198 12.8 197 19.9
2008-12-17 13:48:35 51°23.51 2°55.43 196.9 13 195 20.4
2008-12-17 13:49:35 51°23.305 2°55.334 197.7 12.8 196 20.3
2008-12-17 13:50:35 51°23.101 2°55.245 197.7 12.8 196 21
2008-12-17 13:51:35 51°22.899 2°55.158 197.1 12.5 195 20.8
2008-12-17 13:52:35 51°22.697 2°55.073 197.5 12.4 197 20.9
2008-12-17 13:53:35 51°22.498 2°54.988 198.1 12.3 196 20.3
2008-12-17 13:54:35 51°22.302 2°54.903 196.7 12.3 196 20.8
2008-12-17 13:55:35 51°22.108 2°54.821 198.8 12.1 194 20.6
2008-12-17 13:56:35 51°21.915 2°54.743 196 11.9 193 19.2
2008-12-17 13:57:35 51°21.723 2°54.663 198.2 11.9 196 19
2008-12-17 13:58:35 51°21.534 2°54.571 196.6 12 201 19.2
2008-12-17 13:59:35 51°21.343 2°54.48 197 11.9 199 18.9
2008-12-17 14:00:35 51°21.152 2°54.391 197.4 12 197 18.6
2008-12-17 14:01:35 51°20.962 2°54.302 196.2 11.9 195 18.6
2008-12-17 14:02:35 51°20.771 2°54.216 196.6 11.9 195 18.4
2008-12-17 14:03:35 51°20.58 2°54.128 195.5 12 196 18.3
2008-12-17 14:04:35 51°20.391 2°54.042 196.5 11.8 198 18.2
2008-12-17 14:05:35 51°20.203 2°53.955 199.1 11.6 196 17.6
2008-12-17 14:06:35 51°20.015 2°53.873 197.6 11.7 196 16.8
2008-12-17 14:07:35 51°19.826 2°53.79 197.7 11.8 195 16.1
2008-12-17 14:08:35 51°19.636 2°53.706 198.6 11.8 196 15.5
2008-12-17 14:09:35 51°19.452 2°53.6 205.5 11.7 202 15.1
2008-12-17 14:10:35 51°19.28 2°53.46 209.5 11.6 205 14.8
2008-12-17 14:11:35 51°19.107 2°53.322 208.8 11.6 207 14.6
2008-12-17 14:12:35 51°18.936 2°53.183 209.3 11.6 205 14.2
2008-12-17 14:13:35 51°18.765 2°53.048 207.1 11.4 208 14
2008-12-17 14:14:35 51°18.594 2°52.917 208.9 11.4 207 13.9
2008-12-17 14:15:35 51°18.423 2°52.789 206.4 11.4 200 13.9
2008-12-17 14:16:35 51°18.247 2°52.678 202.3 11.4 200 13.4
2008-12-17 14:17:35 51°18.069 2°52.573 199.7 11.6 196 13.3
2008-12-17 14:18:35 51°17.881 2°52.496 198 11.7 194 13.1
2008-12-17 14:19:35 51°17.69 2°52.43 194.2 11.7 192 13
2008-12-17 14:20:35 51°17.499 2°52.371 194 11.8 192 13.2
2008-12-17 14:21:35 51°17.306 2°52.316 183.3 11.9 174 13.1
2008-12-17 14:22:35 51°17.11 2°52.385 167.3 12.2 163 12.8
2008-12-17 14:23:35 51°16.915 2°52.472 168.3 12.1 165 12.5
2008-12-17 14:24:35 51°16.722 2°52.565 166 12.2 163 12.8
2008-12-17 14:25:35 51°16.525 2°52.655 169 12.4 166 14.4
2008-12-17 14:26:35 51°16.33 2°52.748 167.3 12 165 14.9
2008-12-17 14:27:35 51°16.145 2°52.863 162.8 11.9 162 14.9
2008-12-17 14:28:35 51°15.961 2°52.98 164 12 157 14.7
2008-12-17 14:29:35 51°15.776 2°53.1 162.4 11.9 158 14.5
2008-12-17 14:30:35 51°15.593 2°53.222 162.8 11.9 158 14
2008-12-17 14:31:35 51°15.411 2°53.347 161.4 11.8 158 13.4
2008-12-17 14:32:35 51°15.229 2°53.467 161.7 11.8 156 13
2008-12-17 14:33:35 51°15.05 2°53.591 156.7 11.7 146 12.9
2008-12-17 14:34:35 51°14.943 2°53.78 130.7 11 121 12.7
2008-12-17 14:35:35 51°14.835 2°54.056 126.3 12.7 124 12.5
2008-12-17 14:36:35 51°14.723 2°54.344 126.4 12.9 118 13.6
2008-12-17 14:37:35 51°14.612 2°54.632 135.7 12.8 128 13.1
2008-12-17 14:38:35 51°14.475 2°54.889 136.9 12.7 129 13.7
2008-12-17 14:39:35 51°14.338 2°55.138 143.1 11.9 141 14.2
2008-12-17 14:40:35 51°14.219 2°55.304 135.3 6.9 136 14.2
2008-12-17 14:41:39 51°14.141 2°55.397 151.2 4.6 150 -999
2008-12-17 14:42:39 51°14.08 2°55.45 155.2 3.9 154 -999